Latest Weather Observations for Mardie

IDW60801

Issued at 11:35 pm WST Friday 18 April 2014 (issued every 30 minutes, with the page automatically refreshed every 10 minutes)

About weather observations | Map of weather stations | Latest weather observations for WA | Other Formats
Station Details ID: 005008 Name: MARDIE Lat: -21.19 Lon: 115.98 Height: 11.0 m
Data from the previous 72 hours. | See also: Recent months at Mardie
Date/Time
WST
Temp
°C
App
Temp
°C
Dew
Point
Rel
Hum
%
Delta-T
°C
Wind Press
QNH
hPa
Press
MSL
hPa
Rain
since 9 am
mm
Dir
 
Spd
km/h
Gust
km/h
Spd
kts
Gust
kts
18/11:30pm 22.4 21.5 10.5 47 6.5 NW 6 7 3 4 1014.9 - 0.0
18/11:00pm 22.9 21.9 11.0 47 6.6 NW 7 9 4 5 1015.1 1015.1 0.0
18/10:30pm 23.7 22.5 11.7 47 6.8 NW 9 9 5 5 1015.0 - 0.0
18/10:00pm 24.0 23.4 11.7 46 6.9 NW 6 7 3 4 1015.1 1015.1 0.0
18/09:30pm 24.7 24.1 11.6 44 7.4 NW 6 6 3 3 1015.0 - 0.0
18/09:00pm 25.6 25.6 12.4 43 7.6 NW 4 4 2 2 1014.8 1014.8 0.0
18/08:30pm 26.1 26.6 12.9 44 7.7 NW 2 6 1 3 1014.7 - 0.0
18/08:00pm 26.9 28.0 13.6 44 7.9 CALM 0 0 0 0 1014.5 1014.5 0.0
18/07:30pm 27.6 28.9 16.2 49 7.0 NW 4 4 2 2 1014.1 - 0.0
18/07:00pm 28.2 29.3 15.5 46 7.8 NW 4 6 2 3 1013.9 1013.9 0.0
18/06:30pm 29.0 29.7 15.5 44 8.3 NW 6 7 3 4 1013.5 - 0.0
18/06:00pm 30.4 30.0 14.1 37 9.8 NW 9 13 5 7 1013.1 1013.1 0.0
18/05:30pm 31.6 29.4 13.4 33 10.9 NNW 17 22 9 12 1012.6 - 0.0
18/05:00pm 32.4 30.6 12.1 29 12.0 N 13 20 7 11 1012.3 1012.3 0.0
18/04:30pm 33.0 30.8 10.9 26 12.8 N 13 22 7 12 1012.0 - 0.0
18/04:00pm 33.9 31.2 10.5 24 13.6 N 15 24 8 13 1011.9 1011.9 0.0
18/03:30pm 34.2 30.7 8.8 21 14.4 N 17 32 9 17 1011.8 - 0.0
18/03:00pm 34.6 29.5 6.0 17 15.5 N 22 37 12 20 1012.1 1012.1 0.0
18/02:30pm 35.2 30.4 4.7 15 16.3 N 19 30 10 16 1012.1 - 0.0
18/02:00pm 35.7 29.8 4.1 14 16.7 N 24 32 13 17 1012.1 1012.1 0.0
18/01:30pm 36.5 31.3 3.7 13 17.3 N 20 32 11 17 1012.2 - 0.0
18/01:00pm 35.3 29.8 3.8 14 16.6 N 22 35 12 19 1012.3 1012.3 0.0
18/12:30pm 36.0 29.4 2.1 12 17.4 N 26 35 14 19 1012.5 - 0.0
18/12:00pm 37.6 31.9 0.8 10 18.7 NE 20 35 11 19 1013.1 1013.1 0.0
18/11:30am 35.3 31.3 0.4 11 17.4 NE 11 22 6 12 1013.4 - 0.0
18/11:00am 35.0 31.7 0.2 11 17.2 E 7 20 4 11 1013.9 1013.9 0.0
18/10:30am 33.8 29.6 1.6 13 16.2 SE 13 19 7 10 1014.3 - 0.0
18/10:00am 33.6 29.6 0.3 12 16.4 SE 11 20 6 11 1014.5 1014.5 0.0
18/09:30am 32.5 28.1 2.5 15 15.2 ESE 15 20 8 11 1014.7 - 0.0
18/09:00am 31.4 27.3 4.2 18 14.1 SE 15 19 8 10 1014.8 1014.8 0.0
18/08:30am 29.2 25.6 6.6 24 12.0 SE 15 19 8 10 1014.9 - 0.0
18/08:00am 26.9 24.7 7.9 30 10.2 ESE 9 15 5 8 1014.8 1014.8 0.0
18/07:30am 24.1 22.3 9.3 39 8.0 ESE 9 13 5 7 1014.6 - 0.0
18/07:00am 20.9 18.9 10.1 50 5.8 ESE 11 13 6 7 1014.3 1014.3 0.0
18/06:30am 18.9 16.8 9.9 56 4.8 E 11 13 6 7 1014.2 - 0.0
18/06:00am 18.3 16.6 9.9 58 4.5 E 9 11 5 6 1014.1 1014.1 0.0
18/05:30am 18.8 17.6 10.4 58 4.5 E 7 9 4 5 1014.0 - 0.0
18/05:00am 19.3 17.9 10.8 58 4.6 E 9 9 5 5 1013.8 1013.8 0.0
18/04:30am 19.7 18.7 10.4 55 5.0 E 6 7 3 4 1013.8 - 0.0
18/04:00am 19.8 19.0 11.0 57 4.8 E 6 7 3 4 1013.8 1013.8 0.0
18/03:30am 20.0 19.1 11.5 58 4.7 E 7 7 4 4 1013.7 - 0.0
18/03:00am 20.1 19.2 11.3 57 4.8 E 7 9 4 5 1013.9 1013.9 0.0
18/02:30am 20.6 19.8 11.8 57 4.9 E 7 7 4 4 1013.9 - 0.0
18/02:00am 21.2 20.1 11.8 55 5.2 ESE 9 11 5 6 1014.1 1014.1 0.0
18/01:30am 21.4 20.4 11.1 52 5.7 SSE 7 7 4 4 1014.3 - 0.0
18/01:00am 22.0 21.5 12.0 53 5.6 SSE 6 7 3 4 1014.7 1014.7 0.0
18/12:30am 21.8 20.5 11.2 51 5.9 SSE 9 11 5 6 1015.1 - 0.0
18/12:00am 22.0 21.1 11.4 51 5.9 S 7 9 4 5 1015.4 1015.4 0.0
 
Date/Time
WST
Temp
°C
App
Temp
°C
Dew
Point
Rel
Hum
%
Delta-T
°C
Wind Press
QNH
hPa
Press
MSL
hPa
Rain
since 9 am
mm
Dir
 
Spd
km/h
Gust
km/h
Spd
kts
Gust
kts
17/11:30pm 22.3 21.6 12.0 52 5.8 S 7 9 4 5 1015.4 - 0.0
17/11:00pm 22.7 21.9 12.9 54 5.6 S 9 11 5 6 1015.6 1015.6 0.0
17/10:30pm 22.7 22.4 11.4 49 6.3 W 4 6 2 3 1015.3 - 0.0
17/10:00pm 23.0 22.5 10.8 46 6.7 W 4 6 2 3 1015.1 1015.1 0.0
17/09:30pm 24.3 25.2 12.9 49 6.6 CALM 0 0 0 0 1014.9 - 0.0
17/09:00pm 24.9 26.0 13.5 49 6.7 CALM 0 0 0 0 1014.7 1014.7 0.0
17/08:30pm 25.7 27.8 17.1 59 5.3 W 2 4 1 2 1014.7 - 0.0
17/08:00pm 26.3 27.9 16.8 56 5.9 W 4 4 2 2 1014.5 1014.5 0.0
17/07:30pm 27.1 28.6 16.7 53 6.5 W 4 6 2 3 1014.1 - 0.0
17/07:00pm 28.0 28.1 13.9 42 8.4 W 6 7 3 4 1013.7 1013.7 0.0
17/06:30pm 29.0 28.7 12.8 36 9.5 NNW 6 9 3 5 1013.3 - 0.0
17/06:00pm 30.9 29.5 10.8 29 11.6 WNW 9 13 5 7 1012.9 1012.9 0.0
17/05:30pm 31.8 29.7 11.0 28 12.0 NW 13 17 7 9 1012.7 - 0.0
17/05:00pm 33.0 29.6 7.8 21 14.0 N 15 22 8 12 1012.2 1012.2 0.0
17/04:30pm 33.6 28.4 3.4 15 15.6 N 20 30 11 16 1012.0 - 0.0
17/04:00pm 34.3 29.2 3.0 14 16.2 N 19 28 10 15 1011.7 1011.7 0.0
17/03:30pm 34.6 29.3 3.2 14 16.3 N 20 30 11 16 1011.7 - 0.0
17/03:00pm 34.8 28.8 3.4 14 16.4 NNE 24 35 13 19 1011.6 1011.6 0.0
17/02:30pm 34.7 29.3 4.3 15 16.1 N 22 32 12 17 1011.8 - 0.0
17/02:00pm 34.9 29.1 4.4 15 16.2 N 24 37 13 20 1012.0 1012.0 0.0
17/01:30pm 36.3 31.8 2.4 12 17.5 N 15 32 8 17 1012.2 - 0.0
17/01:00pm 35.7 31.7 -2.0 9 18.1 ESE 9 17 5 9 1012.4 1012.4 0.0
17/12:30pm 35.3 29.4 -0.9 10 17.7 E 20 30 11 16 1012.9 - 0.0
17/12:00pm 34.4 29.7 -1.6 10 17.2 ESE 13 24 7 13 1013.5 1013.5 0.0
17/11:30am 34.3 28.5 -0.4 11 16.9 ENE 20 37 11 20 1014.0 - 0.0
17/11:00am 34.7 29.1 -0.1 11 17.1 ESE 19 32 10 17 1014.3 1014.3 0.0
17/10:30am 33.0 29.0 4.7 17 14.9 E 15 22 8 12 1014.8 - 0.0
17/10:00am 32.6 28.2 6.7 20 14.1 SE 19 24 10 13 1015.0 1015.0 0.0
17/09:30am 31.2 27.0 8.2 24 12.7 SE 20 28 11 15 1015.2 - 0.0
17/09:00am 29.7 27.5 14.3 39 9.3 SE 19 24 10 13 1015.4 1015.4 0.0
17/08:30am 27.8 27.0 17.0 51 6.8 SE 17 22 9 12 1015.2 - 0.0
17/08:00am 26.1 25.8 18.2 61 5.0 SE 17 20 9 11 1015.2 1015.2 0.0
17/07:30am 24.1 24.4 17.8 68 3.9 SE 13 19 7 10 1014.9 - 0.0
17/07:00am 21.4 21.6 16.8 75 2.8 SE 11 11 6 6 1014.7 1014.7 0.0
17/06:30am 20.2 20.5 16.0 77 2.5 ESE 9 11 5 6 1014.4 - 0.0
17/06:00am 20.4 20.7 16.0 76 2.6 ESE 9 13 5 7 1014.2 1014.2 0.0
17/05:30am 20.9 21.3 16.3 75 2.8 ESE 9 11 5 6 1014.1 - 0.0
17/05:00am 20.4 20.8 15.4 73 3.0 ESE 7 9 4 5 1013.9 1013.9 0.0
17/04:30am 20.8 21.2 15.4 71 3.2 SE 7 9 4 5 1013.8 - 0.0
17/04:00am 20.8 21.1 15.1 70 3.4 SE 7 9 4 5 1013.8 1013.8 0.0
17/03:30am 20.8 20.7 14.9 69 3.5 SE 9 11 5 6 1013.9 - 0.0
17/03:00am 21.3 21.3 15.2 68 3.6 ESE 9 9 5 5 1014.0 1014.0 0.0
17/02:30am 21.1 20.8 14.3 65 4.0 ESE 9 11 5 6 1014.1 - 0.0
17/02:00am 21.5 21.7 14.2 63 4.3 N 6 7 3 4 1014.3 1014.3 0.0
17/01:30am 21.9 22.0 14.5 63 4.3 N 7 7 4 4 1014.2 - 0.0
17/01:00am 21.9 21.8 13.8 60 4.7 N 7 7 4 4 1014.2 1014.2 0.0
17/12:30am 22.2 22.3 13.8 59 4.9 N 6 7 3 4 1014.4 - 0.0
17/12:00am 22.3 22.1 13.6 58 5.0 N 7 7 4 4 1014.4 1014.4 0.0
 
Date/Time
WST
Temp
°C
App
Temp
°C
Dew
Point
Rel
Hum
%
Delta-T
°C
Wind Press
QNH
hPa
Press
MSL
hPa
Rain
since 9 am
mm
Dir
 
Spd
km/h
Gust
km/h
Spd
kts
Gust
kts
16/11:30pm 22.9 23.0 14.5 59 5.0 N 7 9 4 5 1014.6 - 0.0
16/11:00pm 22.9 22.8 13.9 57 5.3 N 7 9 4 5 1014.8 1014.8 0.0
16/10:30pm 23.2 23.0 13.1 53 5.8 N 6 7 3 4 1014.8 - 0.0
16/10:00pm 24.0 25.2 15.0 57 5.4 N 2 4 1 2 1014.8 1014.8 0.0
16/09:30pm 24.0 25.5 14.7 56 5.5 CALM 0 2 0 1 1014.5 - 0.0
16/09:00pm 25.4 27.3 15.7 55 5.9 CALM 0 4 0 2 1014.2 1014.2 0.0
16/08:30pm 25.4 27.1 16.3 57 5.6 N 2 4 1 2 1014.0 - 0.0
16/08:00pm 26.1 27.7 16.9 57 5.7 N 4 6 2 3 1013.8 1013.8 0.0
16/07:30pm 26.5 28.1 17.0 56 5.9 N 4 6 2 3 1013.4 - 0.0
16/07:00pm 27.0 28.5 16.6 53 6.4 N 4 6 2 3 1012.9 1012.9 0.0
16/06:30pm 27.9 28.7 15.9 48 7.4 NNW 6 7 3 4 1012.6 - 0.0
16/06:00pm 29.1 29.0 14.9 42 8.6 NNW 9 17 5 9 1012.4 1012.4 0.0
16/05:30pm 30.3 28.7 12.7 34 10.4 NNW 13 19 7 10 1012.0 - 0.0
16/05:00pm 31.0 28.7 11.9 31 11.2 N 15 26 8 14 1011.7 1011.7 0.0
16/04:30pm 32.1 28.8 9.6 25 12.8 N 17 30 9 16 1011.3 - 0.0
16/04:00pm 32.5 28.4 8.7 23 13.3 N 20 30 11 16 1011.2 1011.2 0.0
16/03:30pm 33.3 29.4 9.4 23 13.6 N 20 30 11 16 1011.1 - 0.0
16/03:00pm 33.4 28.2 7.4 20 14.3 N 24 35 13 19 1011.2 1011.2 0.0
16/02:30pm 34.4 29.1 6.7 18 15.2 N 24 35 13 19 1011.3 - 0.0
16/02:00pm 35.0 30.0 4.5 15 16.2 NNE 20 28 11 15 1011.4 1011.4 0.0
16/01:30pm 35.1 29.9 -2.5 9 17.8 ENE 15 35 8 19 1011.8 - 0.0
16/01:00pm 35.8 30.7 -2.0 9 18.2 NE 15 22 8 12 1012.3 1012.3 0.0
16/12:30pm 34.5 28.5 -1.5 10 17.3 E 20 35 11 19 1012.8 - 0.0
16/12:00pm 34.7 28.7 -1.4 10 17.4 E 20 30 11 16 1013.3 1013.3 0.0
16/11:30am 33.8 27.9 -0.7 11 16.7 E 20 30 11 16 1013.9 - 0.0
16/11:00am 34.3 27.9 0.8 12 16.7 ENE 24 41 13 22 1014.3 1014.3 0.0
16/10:30am 33.8 26.2 0.5 12 16.5 ENE 30 37 16 20 1014.7 - 0.0
16/10:00am 33.2 27.4 2.1 14 15.7 E 22 32 12 17 1015.1 1015.1 0.0
16/09:30am 32.0 26.5 3.9 17 14.5 ESE 22 30 12 16 1015.4 - 0.0
16/09:00am 30.5 25.6 5.0 20 13.3 E 20 26 11 14 1015.4 1015.4 0.0
16/08:30am 28.6 25.0 8.3 28 11.1 ESE 17 26 9 14 1015.4 - 0.0
16/08:00am 26.1 24.6 13.2 44 7.5 SE 13 17 7 9 1015.4 1015.4 0.0
16/07:30am 23.6 25.3 18.0 71 3.5 SE 6 7 3 4 1015.2 - 0.0
16/07:00am 21.2 22.4 17.4 79 2.3 SE 7 9 4 5 1015.1 1015.1 0.0
16/06:30am 20.0 20.8 16.4 80 2.2 SE 7 9 4 5 1014.8 - 0.0
16/06:00am 20.1 20.6 16.5 80 2.2 SSE 9 11 5 6 1014.7 1014.7 0.0
16/05:30am 20.4 21.3 16.6 79 2.3 SSE 7 9 4 5 1014.5 - 0.0
16/05:00am 21.0 21.7 17.0 78 2.4 ESE 9 11 5 6 1014.4 1014.4 0.0
16/04:30am 21.1 22.0 16.7 76 2.7 ESE 7 7 4 4 1014.4 - 0.0
16/04:00am 21.5 22.4 16.7 74 2.9 ESE 7 7 4 4 1014.2 1014.2 0.0
16/03:30am 22.2 23.0 17.3 74 3.0 SE 9 9 5 5 1014.3 - 0.0
16/03:00am 22.3 23.1 17.2 73 3.1 SE 9 11 5 6 1014.4 1014.4 0.0
16/02:30am 22.5 22.8 17.0 71 3.4 SE 11 11 6 6 1014.5 - 0.0
16/02:00am 22.5 23.0 16.5 69 3.6 SSE 9 13 5 7 1014.6 1014.6 0.0
16/01:30am 22.1 22.6 15.5 66 3.9 WSW 7 9 4 5 1014.8 - 0.0
16/01:00am 22.6 23.2 15.9 66 4.0 WSW 7 9 4 5 1015.0 1015.0 0.0
16/12:30am 22.8 23.3 15.6 64 4.3 WSW 7 7 4 4 1015.0 - 0.0
16/12:00am 22.9 23.4 15.5 63 4.4 WSW 7 9 4 5 1015.1 1015.1 0.0

Other Formats:

Comma delimited format used in spreadsheet applications
http://www.bom.gov.au/fwo/IDW60801/IDW60801.94306.axf

JavaScript Object Notation format (JSON) in row-major order
http://www.bom.gov.au/fwo/IDW60801/IDW60801.94306.json